createdAt,value
2019-05-29T00:00:34.306Z,98381.17
2019-05-29T00:03:02.780Z,98384.94
2019-05-29T00:05:31.283Z,98384.91
2019-05-29T00:07:59.756Z,98389.49
2019-05-29T00:10:28.262Z,98397.27
2019-05-29T00:12:56.736Z,98395.31
2019-05-29T00:15:25.235Z,98393.27
2019-05-29T00:17:53.714Z,98394.57
2019-05-29T00:20:22.211Z,98412.60
2019-05-29T00:22:50.696Z,98416.16
2019-05-29T00:25:19.214Z,98426.01
2019-05-29T00:27:47.689Z,98427.52
2019-05-29T00:30:17.002Z,98428.08
2019-05-29T00:32:45.499Z,98434.11
2019-05-29T00:35:14.292Z,98435.55
2019-05-29T00:37:42.827Z,98440.14
2019-05-29T00:40:11.469Z,98440.23
2019-05-29T00:42:39.953Z,98446.80
2019-05-29T00:45:09.662Z,98446.45
2019-05-29T00:47:38.173Z,98449.83
2019-05-29T00:50:08.472Z,98450.69
2019-05-29T00:52:37.004Z,98448.91
2019-05-29T00:55:06.646Z,98453.59
2019-05-29T00:57:35.118Z,98453.50
2019-05-29T01:00:04.853Z,98461.94
2019-05-29T01:02:33.334Z,98467.69
2019-05-29T01:05:01.842Z,98466.53
2019-05-29T01:07:30.313Z,98477.67
2019-05-29T01:09:58.812Z,98470.20
2019-05-29T01:12:27.303Z,98483.88
2019-05-29T01:14:55.809Z,98486.70
2019-05-29T01:17:24.280Z,98484.75
2019-05-29T01:19:52.786Z,98495.89
2019-05-29T01:22:22.336Z,98510.48
2019-05-29T01:24:50.942Z,98510.59
2019-05-29T01:27:19.416Z,98516.92
2019-05-29T01:29:47.906Z,98522.05
2019-05-29T01:32:17.505Z,98523.64
2019-05-29T01:34:46.041Z,98529.21
2019-05-29T01:37:14.567Z,98530.40
2019-05-29T01:39:43.090Z,98535.56
2019-05-29T01:42:11.590Z,98538.71
2019-05-29T01:44:40.064Z,98538.25
2019-05-29T01:47:08.558Z,98536.16
2019-05-29T01:49:37.031Z,98542.83
2019-05-29T01:52:05.528Z,98550.72
2019-05-29T01:54:34.036Z,98553.34
2019-05-29T01:57:02.500Z,98557.83
2019-05-29T01:59:30.970Z,98563.98
2019-05-29T02:01:59.477Z,98572.73
2019-05-29T02:04:28.212Z,98574.04
2019-05-29T02:06:56.732Z,98575.30
2019-05-29T02:09:25.203Z,98574.05
2019-05-29T02:11:53.709Z,98580.16
2019-05-29T02:14:22.747Z,98577.48
2019-05-29T02:16:51.265Z,98590.61
2019-05-29T02:19:20.006Z,98595.00
2019-05-29T02:21:48.517Z,98600.03
2019-05-29T02:24:17.094Z,98601.56
2019-05-29T02:26:45.576Z,98604.47
2019-05-29T02:29:14.043Z,98602.12
2019-05-29T02:31:42.548Z,98606.11
2019-05-29T02:34:11.014Z,98606.39
2019-05-29T02:36:39.514Z,98614.19
2019-05-29T02:39:08.621Z,98626.25
2019-05-29T02:41:37.285Z,98628.02
2019-05-29T02:44:05.831Z,98625.83
2019-05-29T02:46:34.333Z,98628.58
2019-05-29T02:49:03.289Z,98626.60
2019-05-29T02:51:32.270Z,98630.86
2019-05-29T02:54:00.733Z,98634.20
2019-05-29T02:56:31.121Z,98638.27
2019-05-29T02:58:59.428Z,98638.86
2019-05-29T03:01:29.580Z,98637.58
2019-05-29T03:03:58.420Z,98647.92
2019-05-29T03:06:28.087Z,98646.33
2019-05-29T03:08:56.710Z,98652.89
2019-05-29T03:11:27.060Z,98662.28
2019-05-29T03:13:55.732Z,98673.05
2019-05-29T03:16:26.106Z,98679.09
2019-05-29T03:18:54.406Z,98682.37
2019-05-29T03:21:24.099Z,98686.50
2019-05-29T03:23:52.679Z,98689.50
2019-05-29T03:26:24.619Z,98692.41
2019-05-29T03:28:51.373Z,98694.48
2019-05-29T03:31:19.845Z,98703.53
2019-05-29T03:33:50.645Z,98704.77
2019-05-29T03:36:18.538Z,98711.23
2019-05-29T03:38:47.037Z,98717.09
2019-05-29T03:41:15.513Z,98725.47
2019-05-29T03:43:44.012Z,98731.98
2019-05-29T03:46:29.331Z,98733.58
2019-05-29T03:48:42.977Z,98744.20
2019-05-29T03:51:11.516Z,98742.04
2019-05-29T03:53:40.036Z,98746.10
2019-05-29T03:56:08.510Z,98751.98
2019-05-29T03:58:37.783Z,98763.02
2019-05-29T04:01:06.371Z,98763.61
2019-05-29T04:03:35.603Z,98769.72
2019-05-29T04:06:05.618Z,98782.44
2019-05-29T04:08:35.506Z,98788.92
2019-05-29T04:11:04.256Z,98796.42
2019-05-29T04:13:34.053Z,98797.44
2019-05-29T04:16:03.770Z,98800.78
2019-05-29T04:18:35.827Z,98802.39
2019-05-29T04:21:04.516Z,98811.60
2019-05-29T04:23:36.115Z,98806.47
2019-05-29T04:26:05.027Z,98809.24
2019-05-29T04:28:34.898Z,98814.28
2019-05-29T04:31:03.780Z,98817.09
2019-05-29T04:33:32.787Z,98822.56
2019-05-29T04:36:02.456Z,98826.44
2019-05-29T04:38:33.194Z,98836.23
2019-05-29T04:41:01.153Z,98844.13
2019-05-29T04:43:31.157Z,98850.55
2019-05-29T04:45:59.835Z,98851.56
2019-05-29T04:48:29.334Z,98846.89
2019-05-29T04:50:58.518Z,98851.20
2019-05-29T04:53:27.001Z,98856.60
2019-05-29T04:55:55.476Z,98857.94
2019-05-29T04:58:23.967Z,98868.22
2019-05-29T05:00:58.898Z,98864.84
2019-05-29T05:03:22.654Z,98866.88
2019-05-29T05:05:51.122Z,98875.63
2019-05-29T05:08:19.614Z,98876.83
2019-05-29T05:10:48.084Z,98884.27
2019-05-29T05:13:16.580Z,98884.84
2019-05-29T05:15:46.683Z,98887.34
2019-05-29T05:18:15.246Z,98898.33
2019-05-29T05:20:43.712Z,98900.19
2019-05-29T05:23:12.277Z,98896.33
2019-05-29T05:25:41.158Z,98907.73
2019-05-29T05:28:09.592Z,98902.56
2019-05-29T05:30:38.501Z,98899.87
2019-05-29T05:33:07.023Z,98911.32
2019-05-29T05:35:36.828Z,98918.34
2019-05-29T05:38:05.333Z,98920.03
2019-05-29T05:40:37.140Z,98931.15
2019-05-29T05:43:04.256Z,98930.03
2019-05-29T05:45:33.023Z,98930.23
2019-05-29T05:48:01.507Z,98937.17
2019-05-29T05:50:30.994Z,98940.08
2019-05-29T05:52:59.560Z,98944.09
2019-05-29T05:55:28.120Z,98951.64
2019-05-29T05:57:56.596Z,98956.87
2019-05-29T06:00:33.934Z,98960.54
2019-05-29T06:03:02.634Z,98972.00
2019-05-29T06:05:32.107Z,98967.23
2019-05-29T06:08:00.722Z,98975.77
2019-05-29T06:10:29.217Z,98982.86
2019-05-29T06:12:57.749Z,98989.44
2019-05-29T06:15:26.341Z,98989.00
2019-05-29T06:18:17.168Z,98996.95
2019-05-29T06:20:25.069Z,98990.66
2019-05-29T06:22:53.543Z,98994.09
2019-05-29T06:25:22.104Z,98996.50
2019-05-29T06:27:50.566Z,99002.45
2019-05-29T06:30:20.392Z,98998.35
2019-05-29T06:32:48.868Z,98990.08
2019-05-29T06:35:18.000Z,98995.80
2019-05-29T06:37:46.481Z,99001.91
2019-05-29T06:40:18.095Z,99001.37
2019-05-29T06:42:46.559Z,98999.84
2019-05-29T06:45:18.163Z,99000.35
2019-05-29T06:47:46.667Z,98996.03
2019-05-29T06:50:15.225Z,98994.86
2019-05-29T06:52:43.692Z,98989.11
2019-05-29T06:55:12.209Z,98991.34
2019-05-29T06:57:42.457Z,99005.79
2019-05-29T07:00:11.087Z,99013.00
2019-05-29T07:02:40.678Z,99016.72
2019-05-29T07:05:09.335Z,99010.02
2019-05-29T07:07:38.311Z,99021.10
2019-05-29T07:10:07.631Z,99024.46
2019-05-29T07:12:36.369Z,99037.08
2019-05-29T07:15:08.071Z,99026.37
2019-05-29T07:17:36.539Z,99035.53
2019-05-29T07:20:06.390Z,99038.00
2019-05-29T07:22:34.860Z,99048.27
2019-05-29T07:25:04.231Z,99050.14
2019-05-29T07:27:32.701Z,99057.00
2019-05-29T07:30:01.202Z,99055.53
2019-05-29T07:32:29.806Z,99062.72
2019-05-29T07:35:03.633Z,99058.63
2019-05-29T07:37:28.497Z,99066.06
2019-05-29T07:39:56.986Z,99074.31
2019-05-29T07:42:25.454Z,99068.88
2019-05-29T07:44:53.929Z,99073.25
2019-05-29T07:47:22.456Z,99074.53
2019-05-29T07:49:51.009Z,99076.27
2019-05-29T07:52:19.507Z,99079.72
2019-05-29T07:54:48.212Z,99076.90
2019-05-29T07:57:16.759Z,99078.55
2019-05-29T07:59:45.238Z,99086.91
2019-05-29T08:02:13.745Z,99080.64
2019-05-29T08:04:43.048Z,99082.36
2019-05-29T08:07:11.603Z,99088.90
2019-05-29T08:09:41.275Z,99088.09
2019-05-29T08:12:09.859Z,99087.32
2019-05-29T08:14:39.555Z,99092.25
2019-05-29T08:17:08.108Z,99092.56
2019-05-29T08:19:36.582Z,99095.55
2019-05-29T08:22:05.246Z,99098.30
2019-05-29T08:24:33.707Z,99098.61
2019-05-29T08:27:02.201Z,99103.64
2019-05-29T08:29:30.690Z,99104.02
2019-05-29T08:31:59.200Z,99112.29
2019-05-29T08:34:27.668Z,99112.17
2019-05-29T08:37:06.656Z,99119.44
2019-05-29T08:39:36.192Z,99129.91
2019-05-29T08:42:21.370Z,99123.22
2019-05-29T08:44:26.962Z,99122.13
2019-05-29T08:47:09.060Z,99126.30
2019-05-29T08:49:25.676Z,99133.30
2019-05-29T08:52:10.475Z,99129.33
2019-05-29T08:54:24.555Z,99133.13
2019-05-29T08:56:53.045Z,99133.50
2019-05-29T08:59:21.527Z,99141.02
2019-05-29T09:01:52.737Z,99132.23
2019-05-29T09:04:20.298Z,99131.96
2019-05-29T09:06:49.207Z,99141.89
2019-05-29T09:09:17.773Z,99140.96
2019-05-29T09:11:47.582Z,99138.08
2019-05-29T09:14:16.116Z,99143.40
2019-05-29T09:16:44.624Z,99144.62
2019-05-29T09:19:14.173Z,99140.61
2019-05-29T09:21:42.664Z,99147.95
2019-05-29T09:24:11.178Z,99150.29
2019-05-29T09:26:39.674Z,99157.47
2019-05-29T09:29:08.145Z,99159.23
2019-05-29T09:31:36.649Z,99161.49
2019-05-29T09:34:05.201Z,99147.86
2019-05-29T09:36:33.740Z,99157.50
2019-05-29T09:39:02.191Z,99156.60
2019-05-29T09:41:30.660Z,99163.27
2019-05-29T09:44:00.298Z,99169.79
2019-05-29T09:46:28.894Z,99169.62
2019-05-29T09:49:00.735Z,99171.05
2019-05-29T09:51:27.642Z,99178.47
2019-05-29T09:53:58.195Z,99169.98
2019-05-29T09:56:26.348Z,99184.48
2019-05-29T09:58:56.372Z,99187.41
2019-05-29T10:01:25.757Z,99184.78
2019-05-29T10:03:56.395Z,99195.60
2019-05-29T10:06:24.672Z,99199.41
2019-05-29T10:08:54.241Z,99192.45
2019-05-29T10:11:23.354Z,99191.98
2019-05-29T10:13:51.846Z,99190.99
2019-05-29T10:16:20.378Z,99199.00
2019-05-29T10:18:48.867Z,99200.03
2019-05-29T10:21:17.342Z,99198.42
2019-05-29T10:23:45.831Z,99200.87
2019-05-29T10:26:14.291Z,99191.08
2019-05-29T10:28:55.845Z,99195.41
2019-05-29T10:31:12.992Z,99200.51
2019-05-29T10:33:42.372Z,99203.22
2019-05-29T10:36:10.935Z,99202.20
2019-05-29T10:38:39.498Z,99207.13
2019-05-29T10:41:07.973Z,99212.48
2019-05-29T10:43:36.484Z,99199.00
2019-05-29T10:46:05.079Z,99206.14
2019-05-29T10:48:33.640Z,99214.69
2019-05-29T10:51:02.084Z,99216.96
2019-05-29T10:53:30.583Z,99218.52
2019-05-29T10:55:59.047Z,99217.45
2019-05-29T10:58:27.544Z,99221.14
2019-05-29T11:00:56.009Z,99223.55
2019-05-29T11:03:24.506Z,99224.33
2019-05-29T11:05:53.770Z,99228.52
2019-05-29T11:08:22.366Z,99228.13
2019-05-29T11:10:51.886Z,99237.41
2019-05-29T11:13:20.500Z,99231.42
2019-05-29T11:15:48.970Z,99231.80
2019-05-29T11:18:17.465Z,99234.20
2019-05-29T11:20:47.177Z,99237.84
2019-05-29T11:23:15.697Z,99245.59
2019-05-29T11:25:44.236Z,99242.91
2019-05-29T11:28:12.729Z,99239.45
2019-05-29T11:30:41.235Z,99256.48
2019-05-29T11:33:09.768Z,99250.78
2019-05-29T11:35:38.328Z,99248.88
2019-05-29T11:38:06.785Z,99250.27
2019-05-29T11:40:35.684Z,99239.97
2019-05-29T11:43:04.326Z,99250.30
2019-05-29T11:45:35.341Z,99248.33
2019-05-29T11:48:05.131Z,99250.12
2019-05-29T11:50:33.308Z,99260.96
2019-05-29T11:53:02.676Z,99259.26
2019-05-29T11:55:31.215Z,99263.78
2019-05-29T11:58:00.120Z,99249.17
2019-05-29T12:00:29.245Z,99252.55
2019-05-29T12:02:57.889Z,99251.98
2019-05-29T12:05:26.423Z,99253.94
2019-05-29T12:07:55.484Z,99258.29
2019-05-29T12:10:24.878Z,99259.67
2019-05-29T12:12:53.501Z,99260.04
2019-05-29T12:15:22.716Z,99250.06
2019-05-29T12:17:59.070Z,99258.90
2019-05-29T12:20:28.101Z,99264.88
2019-05-29T12:23:13.279Z,99270.63
2019-05-29T12:25:21.855Z,99273.15
2019-05-29T12:27:50.612Z,99269.91
2019-05-29T12:30:19.647Z,99266.37
2019-05-29T12:32:48.142Z,99277.84
2019-05-29T12:35:16.872Z,99273.91
2019-05-29T12:37:45.362Z,99277.45
2019-05-29T12:40:14.058Z,99284.14
2019-05-29T12:42:44.949Z,99276.19
2019-05-29T12:45:13.139Z,99282.09
2019-05-29T12:47:41.580Z,99280.58
2019-05-29T12:50:11.601Z,99274.80
2019-05-29T12:52:40.062Z,99278.42
2019-05-29T12:55:09.409Z,99282.96
2019-05-29T12:57:37.884Z,99277.53
2019-05-29T13:00:12.138Z,99277.14
2019-05-29T13:02:40.673Z,99285.77
2019-05-29T13:05:18.005Z,99283.69
2019-05-29T13:07:41.652Z,99284.73
2019-05-29T13:10:27.241Z,99291.84
2019-05-29T13:12:42.257Z,99275.84
2019-05-29T13:15:12.999Z,99278.73
2019-05-29T13:17:41.524Z,99280.07
2019-05-29T13:20:21.091Z,99276.73
2019-05-29T13:22:40.894Z,99277.59
2019-05-29T13:25:12.163Z,99280.52
2019-05-29T13:27:40.033Z,99285.94
2019-05-29T13:30:12.918Z,99285.83
2019-05-29T13:32:41.476Z,99283.48
2019-05-29T13:35:11.657Z,99285.45
2019-05-29T13:37:40.087Z,99275.50
2019-05-29T13:40:09.622Z,99283.67
2019-05-29T13:42:38.098Z,99275.52
2019-05-29T13:45:16.775Z,99279.53
2019-05-29T13:47:37.721Z,99274.59
2019-05-29T13:50:11.955Z,99276.58
2019-05-29T13:52:38.245Z,99274.96
2019-05-29T13:55:07.761Z,99268.56
2019-05-29T13:57:39.560Z,99272.04
2019-05-29T14:00:30.355Z,99275.99
2019-05-29T14:02:39.163Z,99280.29
2019-05-29T14:05:08.811Z,99279.36
2019-05-29T14:07:37.337Z,99281.48
2019-05-29T14:10:07.758Z,99284.31
2019-05-29T14:12:39.468Z,99292.53
2019-05-29T14:15:08.964Z,99286.46
2019-05-29T14:17:37.904Z,99285.88
2019-05-29T14:20:08.996Z,99281.06
2019-05-29T14:22:37.609Z,99285.42
2019-05-29T14:25:09.544Z,99284.69
2019-05-29T14:27:38.175Z,99284.69
2019-05-29T14:30:11.095Z,99283.12
2019-05-29T14:32:39.727Z,99276.84
2019-05-29T14:35:10.803Z,99277.94
2019-05-29T14:37:39.015Z,99277.23
2019-05-29T14:40:08.121Z,99281.48
2019-05-29T14:42:36.651Z,99280.72
2019-05-29T14:45:08.159Z,99280.14
2019-05-29T14:47:36.734Z,99284.18
2019-05-29T14:50:09.115Z,99283.72
2019-05-29T14:52:38.142Z,99280.72
2019-05-29T14:55:09.029Z,99287.80
2019-05-29T14:57:38.397Z,99290.20
2019-05-29T15:00:18.881Z,99282.95
2019-05-29T15:02:38.503Z,99295.28
2019-05-29T15:05:09.773Z,99303.81
2019-05-29T15:07:38.408Z,99305.89
2019-05-29T15:10:21.755Z,99303.43
2019-05-29T15:12:39.003Z,99304.76
2019-05-29T15:15:09.047Z,99306.08
2019-05-29T15:17:37.964Z,99300.59
2019-05-29T15:20:12.599Z,99295.27
2019-05-29T15:22:41.193Z,99307.91
2019-05-29T15:25:18.563Z,99298.72
2019-05-29T15:27:40.424Z,99301.45
2019-05-29T15:30:11.339Z,99300.53
2019-05-29T15:32:40.043Z,99307.06
2019-05-29T15:35:14.443Z,99307.73
2019-05-29T15:37:40.800Z,99306.26
2019-05-29T15:40:10.902Z,99309.80
2019-05-29T15:42:39.781Z,99301.94
2019-05-29T15:45:10.071Z,99308.20
2019-05-29T15:47:38.608Z,99311.95
2019-05-29T15:50:09.297Z,99315.87
2019-05-29T15:52:37.891Z,99312.42
2019-05-29T15:55:27.362Z,99317.00
2019-05-29T15:57:40.454Z,99314.25
2019-05-29T16:00:11.372Z,99316.93
2019-05-29T16:02:40.047Z,99316.70
2019-05-29T16:05:10.917Z,99314.91
2019-05-29T16:07:39.895Z,99320.42
2019-05-29T16:10:14.416Z,99314.45
2019-05-29T16:12:41.420Z,99323.59
2019-05-29T16:15:11.302Z,99324.20
2019-05-29T16:17:39.939Z,99329.08
2019-05-29T16:20:10.379Z,99333.09
2019-05-29T16:22:39.113Z,99331.23
2019-05-29T16:25:08.146Z,99337.64
2019-05-29T16:27:36.747Z,99334.95
2019-05-29T16:30:11.318Z,99338.09
2019-05-29T16:32:40.126Z,99345.03
2019-05-29T16:35:09.227Z,99346.87
2019-05-29T16:37:37.707Z,99350.50
2019-05-29T16:40:09.232Z,99339.20
2019-05-29T16:42:37.727Z,99340.64
2019-05-29T16:45:09.610Z,99341.05
2019-05-29T16:47:38.358Z,99348.81
2019-05-29T16:50:08.474Z,99343.16
2019-05-29T16:52:37.375Z,99347.99
2019-05-29T16:55:06.722Z,99345.37
2019-05-29T16:57:35.369Z,99347.97
2019-05-29T17:00:06.505Z,99348.05
2019-05-29T17:02:34.971Z,99359.02
2019-05-29T17:05:04.905Z,99354.03
2019-05-29T17:07:33.374Z,99357.23
2019-05-29T17:10:02.035Z,99357.78
2019-05-29T17:12:30.629Z,99359.52
2019-05-29T17:14:59.143Z,99360.47
2019-05-29T17:17:30.469Z,99360.80
2019-05-29T17:19:57.979Z,99367.91
2019-05-29T17:22:26.531Z,99362.03
2019-05-29T17:24:55.014Z,99367.02
2019-05-29T17:27:23.503Z,99372.25
2019-05-29T17:29:51.996Z,99372.78
2019-05-29T17:32:21.143Z,99372.28
2019-05-29T17:34:49.803Z,99371.23
2019-05-29T17:37:19.073Z,99374.72
2019-05-29T17:39:47.562Z,99381.09
2019-05-29T17:42:16.133Z,99382.42
2019-05-29T17:44:44.616Z,99379.11
2019-05-29T17:47:13.145Z,99386.91
2019-05-29T17:49:41.626Z,99389.92
2019-05-29T17:52:10.103Z,99395.23
2019-05-29T17:54:38.605Z,99399.55
2019-05-29T17:57:07.156Z,99395.19
2019-05-29T17:59:35.672Z,99402.95
2019-05-29T18:02:04.478Z,99396.72
2019-05-29T18:04:32.999Z,99408.45
2019-05-29T18:07:01.490Z,99407.59
2019-05-29T18:09:29.982Z,99411.38
2019-05-29T18:11:58.460Z,99408.42
2019-05-29T18:14:27.543Z,99410.28
2019-05-29T18:16:56.034Z,99415.98
2019-05-29T18:19:25.777Z,99412.16
2019-05-29T18:21:54.326Z,99417.70
2019-05-29T18:24:23.760Z,99414.84
2019-05-29T18:26:52.437Z,99418.86
2019-05-29T18:29:22.325Z,99419.90
2019-05-29T18:31:50.811Z,99425.93
2019-05-29T18:34:20.735Z,99422.55
2019-05-29T18:36:49.265Z,99426.73
2019-05-29T18:39:17.763Z,99435.78
2019-05-29T18:41:46.226Z,99429.16
2019-05-29T18:44:14.688Z,99434.27
2019-05-29T18:46:43.188Z,99441.20
2019-05-29T18:49:14.548Z,99441.69
2019-05-29T18:51:41.945Z,99445.42
2019-05-29T18:54:10.416Z,99453.47
2019-05-29T18:56:38.929Z,99458.70
2019-05-29T18:59:07.370Z,99460.78
2019-05-29T19:01:35.867Z,99458.73
2019-05-29T19:04:04.404Z,99462.19
2019-05-29T19:06:32.969Z,99471.17
2019-05-29T19:09:01.443Z,99470.13
2019-05-29T19:11:30.057Z,99477.25
2019-05-29T19:13:58.482Z,99477.05
2019-05-29T19:16:27.993Z,99477.28
2019-05-29T19:18:56.510Z,99477.21
2019-05-29T19:21:26.309Z,99482.56
2019-05-29T19:23:54.871Z,99495.59
2019-05-29T19:26:24.663Z,99490.44
2019-05-29T19:28:53.197Z,99490.11
2019-05-29T19:31:22.900Z,99492.17
2019-05-29T19:33:51.441Z,99501.78
2019-05-29T19:36:19.938Z,99505.64
2019-05-29T19:38:48.427Z,99509.72
2019-05-29T19:41:16.933Z,99512.75
2019-05-29T19:43:45.401Z,99515.68
2019-05-29T19:46:13.902Z,99519.61
2019-05-29T19:48:42.375Z,99517.31
2019-05-29T19:51:10.866Z,99517.27
2019-05-29T19:53:39.340Z,99520.40
2019-05-29T19:56:07.908Z,99521.59
2019-05-29T19:58:36.384Z,99522.45
2019-05-29T20:01:05.186Z,99528.51
2019-05-29T20:03:34.662Z,99526.44
2019-05-29T20:06:03.199Z,99530.55
2019-05-29T20:08:34.374Z,99535.77
2019-05-29T20:11:01.893Z,99535.52
2019-05-29T20:13:31.644Z,99536.41
2019-05-29T20:16:00.160Z,99541.73
2019-05-29T20:18:28.626Z,99539.69
2019-05-29T20:20:57.126Z,99536.02
2019-05-29T20:23:25.596Z,99540.78
2019-05-29T20:25:54.080Z,99543.93
2019-05-29T20:28:22.543Z,99547.03
2019-05-29T20:30:51.046Z,99551.00
2019-05-29T20:33:19.488Z,99556.69
2019-05-29T20:35:47.974Z,99561.58
2019-05-29T20:38:16.444Z,99561.65
2019-05-29T20:40:44.962Z,99561.53
2019-05-29T20:43:13.423Z,99564.83
2019-05-29T20:45:41.894Z,99560.55
2019-05-29T20:48:10.551Z,99565.09
2019-05-29T20:50:39.200Z,99568.66
2019-05-29T20:53:07.767Z,99575.85
2019-05-29T20:55:36.275Z,99568.55
2019-05-29T20:58:04.819Z,99575.98
2019-05-29T21:00:33.936Z,99580.94
2019-05-29T21:03:02.500Z,99575.80
2019-05-29T21:05:30.965Z,99579.08
2019-05-29T21:07:59.478Z,99584.31
2019-05-29T21:10:27.917Z,99579.44
2019-05-29T21:12:56.503Z,99579.84
2019-05-29T21:15:25.067Z,99589.41
2019-05-29T21:17:53.557Z,99589.22
2019-05-29T21:20:22.184Z,99596.81
2019-05-29T21:22:50.670Z,99597.23
2019-05-29T21:25:19.619Z,99600.20
2019-05-29T21:27:49.603Z,99598.59
2019-05-29T21:30:23.507Z,99600.51
2019-05-29T21:32:52.177Z,99597.23
2019-05-29T21:35:20.640Z,99596.98
2019-05-29T21:37:49.126Z,99602.74
2019-05-29T21:40:17.939Z,99606.18
2019-05-29T21:42:46.988Z,99611.16
2019-05-29T21:45:15.707Z,99608.72
2019-05-29T21:47:45.064Z,99617.40
2019-05-29T21:50:13.725Z,99610.56
2019-05-29T21:52:43.505Z,99606.44
2019-05-29T21:55:12.604Z,99608.14
2019-05-29T21:57:43.945Z,99612.71
2019-05-29T22:00:15.208Z,99615.98
2019-05-29T22:02:44.429Z,99607.88
2019-05-29T22:05:13.723Z,99615.16
2019-05-29T22:07:42.783Z,99615.63
2019-05-29T22:10:12.787Z,99617.08
2019-05-29T22:12:41.255Z,99623.73
2019-05-29T22:15:10.099Z,99630.30
2019-05-29T22:17:38.618Z,99631.69
2019-05-29T22:20:07.856Z,99628.77
2019-05-29T22:22:36.327Z,99631.08
2019-05-29T22:25:08.863Z,99634.38
2019-05-29T22:27:38.152Z,99633.23
2019-05-29T22:30:07.781Z,99636.64
2019-05-29T22:32:36.254Z,99638.43
2019-05-29T22:35:06.072Z,99636.98
2019-05-29T22:37:34.566Z,99642.91
2019-05-29T22:40:03.707Z,99644.25
2019-05-29T22:42:32.163Z,99645.59
2019-05-29T22:45:02.108Z,99640.73
2019-05-29T22:47:30.705Z,99646.27
2019-05-29T22:49:59.870Z,99644.31
2019-05-29T22:52:28.337Z,99642.70
2019-05-29T22:54:57.995Z,99644.59
2019-05-29T22:57:26.577Z,99647.71
2019-05-29T22:59:55.915Z,99649.39
2019-05-29T23:02:24.546Z,99647.21
2019-05-29T23:04:54.149Z,99647.86
2019-05-29T23:07:22.684Z,99649.16
2019-05-29T23:09:52.103Z,99653.59
2019-05-29T23:12:20.611Z,99649.16
2019-05-29T23:14:49.102Z,99649.16
2019-05-29T23:17:17.567Z,99650.47
2019-05-29T23:19:46.078Z,99659.95
2019-05-29T23:22:14.511Z,99659.03
2019-05-29T23:24:43.005Z,99657.78
2019-05-29T23:27:11.473Z,99658.45
2019-05-29T23:29:48.926Z,99658.14
2019-05-29T23:32:10.162Z,99664.35
2019-05-29T23:34:38.655Z,99659.14
2019-05-29T23:37:07.119Z,99662.34
2019-05-29T23:39:35.616Z,99667.25
2019-05-29T23:42:04.092Z,99664.02
2019-05-29T23:44:32.640Z,99660.75
2019-05-29T23:47:01.790Z,99660.46
2019-05-29T23:49:30.377Z,99660.17
2019-05-29T23:51:59.676Z,99659.18
2019-05-29T23:54:28.222Z,99666.37
2019-05-29T23:56:57.850Z,99669.26
2019-05-29T23:59:26.441Z,99659.14
